createdAt,value
2018-05-21T00:09:03.581Z,24.4
2018-05-21T00:19:02.801Z,24.5
2018-05-21T00:29:01.958Z,24.5
2018-05-21T00:39:01.199Z,24.6
2018-05-21T00:49:00.394Z,24.7
2018-05-21T00:58:59.686Z,24.8
2018-05-21T01:08:58.882Z,24.8
2018-05-21T01:18:58.047Z,24.9
2018-05-21T01:28:57.286Z,24.9
2018-05-21T01:38:56.483Z,25
2018-05-21T01:48:55.707Z,25
2018-05-21T01:58:54.917Z,25.1
2018-05-21T02:08:54.144Z,25.1
2018-05-21T02:18:53.401Z,25.2
2018-05-21T02:28:52.592Z,25.3
2018-05-21T02:38:51.786Z,24.5
2018-05-21T02:48:51.027Z,21.9
2018-05-21T02:58:50.224Z,22.1
2018-05-21T03:08:49.447Z,22.3
2018-05-21T03:18:48.656Z,22.3
2018-05-21T03:28:47.884Z,22.4
2018-05-21T03:38:47.164Z,22.4
2018-05-21T03:48:46.333Z,22.4
2018-05-21T03:58:45.538Z,22.3
2018-05-21T04:08:44.753Z,22.3
2018-05-21T04:18:44.042Z,22.4
2018-05-21T04:28:43.256Z,22.4
2018-05-21T04:38:42.424Z,22
2018-05-21T04:48:41.681Z,22.2
2018-05-21T04:58:40.855Z,22.3
2018-05-21T05:08:40.064Z,22.3
2018-05-21T05:18:39.302Z,22.6
2018-05-21T05:28:38.563Z,22.9
2018-05-21T05:38:37.731Z,23.3
2018-05-21T05:48:36.957Z,23.6
2018-05-21T05:58:36.206Z,23.9
2018-05-21T06:08:35.364Z,24.2
2018-05-21T06:18:34.602Z,24.4
2018-05-21T06:28:33.819Z,24.8
2018-05-21T06:38:33.017Z,25.3
2018-05-21T06:48:32.240Z,25.8
2018-05-21T06:58:31.459Z,26.2
2018-05-21T07:08:30.689Z,26.6
2018-05-21T07:18:29.967Z,27
2018-05-21T07:28:29.103Z,27.4
2018-05-21T07:38:28.343Z,27.8
2018-05-21T07:48:27.541Z,28.1
2018-05-21T07:58:26.771Z,28.4
2018-05-21T08:08:26.032Z,28.7
2018-05-21T08:18:25.197Z,28.9
2018-05-21T08:28:24.432Z,29.1
2018-05-21T08:38:23.687Z,29.3
2018-05-21T08:48:22.923Z,29.4
2018-05-21T08:58:22.113Z,29.6
2018-05-21T09:08:21.304Z,29.6
2018-05-21T09:18:20.521Z,29.8
2018-05-21T09:28:19.721Z,29.9
2018-05-21T09:38:18.993Z,29.9
2018-05-21T09:48:18.161Z,30.1
2018-05-21T09:58:17.378Z,30.1
2018-05-21T10:08:16.610Z,30.3
2018-05-21T10:18:15.832Z,30.1
2018-05-21T10:28:15.028Z,30.1
2018-05-21T10:38:14.301Z,30.3
2018-05-21T10:48:13.470Z,30.4
2018-05-21T10:58:12.701Z,30.5
2018-05-21T11:08:11.920Z,30.6
2018-05-21T11:18:11.165Z,30.8
2018-05-21T11:28:10.343Z,30.9
2018-05-21T11:38:09.613Z,31.1
2018-05-21T11:48:08.779Z,31.2
2018-05-21T11:58:08.010Z,31.3
2018-05-21T12:08:07.279Z,31.5
2018-05-21T12:18:06.427Z,31.6
2018-05-21T12:28:05.650Z,31.8
2018-05-21T12:38:04.936Z,31.9
2018-05-21T12:48:04.087Z,32.1
2018-05-21T12:58:03.305Z,32.3
2018-05-21T13:08:02.587Z,32.4
2018-05-21T13:18:01.742Z,32.6
2018-05-21T13:28:01.002Z,32.9
2018-05-21T13:38:00.193Z,33.1
2018-05-21T13:47:59.411Z,33.3
2018-05-21T13:57:58.682Z,33.5
2018-05-21T14:07:57.848Z,33.7
2018-05-21T14:17:57.045Z,33.8
2018-05-21T14:27:56.261Z,33.9
2018-05-21T14:37:55.504Z,34
2018-05-21T14:47:54.697Z,34.1
2018-05-21T14:57:53.916Z,34
2018-05-21T15:07:53.136Z,34.1
2018-05-21T15:17:52.354Z,34.1
2018-05-21T15:27:51.647Z,34.1
2018-05-21T15:37:50.813Z,32.5
2018-05-21T15:47:50.011Z,30.7
2018-05-21T15:57:49.251Z,29.8
2018-05-21T16:07:48.470Z,29.3
2018-05-21T16:17:47.733Z,29.4
2018-05-21T16:27:46.959Z,29.4
2018-05-21T16:37:46.106Z,29.1
2018-05-21T16:47:45.407Z,29.1
2018-05-21T16:57:44.544Z,29.1
2018-05-21T17:07:43.766Z,29.1
2018-05-21T17:17:43.005Z,28.4
2018-05-21T17:27:42.225Z,28.5
2018-05-21T17:37:41.446Z,28.5
2018-05-21T17:47:40.642Z,28.6
2018-05-21T17:57:39.859Z,28.6
2018-05-21T18:07:39.105Z,28.6
2018-05-21T18:17:38.319Z,28.4
2018-05-21T18:27:37.714Z,25.8
2018-05-21T18:37:36.733Z,25.9
2018-05-21T18:47:35.953Z,25.9
2018-05-21T18:57:35.193Z,25.6
2018-05-21T19:07:34.712Z,25.6
2018-05-21T19:17:33.633Z,25.4
2018-05-21T19:27:32.851Z,23.6
2018-05-21T19:37:32.101Z,23.5
2018-05-21T19:47:31.268Z,21.4
2018-05-21T19:57:30.495Z,20.8
2018-05-21T20:07:29.730Z,20.8
2018-05-21T20:17:28.952Z,20.9
2018-05-21T20:27:28.144Z,21.1
2018-05-21T20:37:27.367Z,21.2
2018-05-21T20:47:26.611Z,21.3
2018-05-21T20:57:25.824Z,21.3
2018-05-21T21:07:25.190Z,21.4
2018-05-21T21:17:24.237Z,21.5
2018-05-21T21:27:23.460Z,21.6
2018-05-21T21:37:22.824Z,21.6
2018-05-21T21:47:21.892Z,21.7
2018-05-21T21:57:21.134Z,21.8
2018-05-21T22:07:20.507Z,21.8
2018-05-21T22:17:19.570Z,21.8
2018-05-21T22:27:18.788Z,21.9
2018-05-21T22:37:17.985Z,21.9
2018-05-21T22:47:17.225Z,21.9
2018-05-21T22:57:16.494Z,21.9
2018-05-21T23:07:15.638Z,22
2018-05-21T23:17:14.856Z,22.1
2018-05-21T23:27:14.076Z,22.1
2018-05-21T23:37:13.289Z,22.1
2018-05-21T23:47:12.532Z,22.1
2018-05-21T23:57:11.774Z,22.1
